sensor_id;sensor_type;location;lat;lon;timestamp;P1;durP1;ratioP1;P2;durP2;ratioP2
15266;SDS011;7735;49.144;8.668;2023-04-25T00:00:54;6.03;;;2.33;;
15266;SDS011;7735;49.144;8.668;2023-04-25T00:03:22;4.33;;;2.30;;
15266;SDS011;7735;49.144;8.668;2023-04-25T00:05:50;2.90;;;2.47;;
15266;SDS011;7735;49.144;8.668;2023-04-25T00:08:17;2.63;;;1.87;;
15266;SDS011;7735;49.144;8.668;2023-04-25T00:10:43;2.83;;;2.10;;
15266;SDS011;7735;49.144;8.668;2023-04-25T00:13:10;2.50;;;2.13;;
15266;SDS011;7735;49.144;8.668;2023-04-25T00:15:38;3.23;;;2.37;;
15266;SDS011;7735;49.144;8.668;2023-04-25T00:18:06;2.57;;;1.97;;
15266;SDS011;7735;49.144;8.668;2023-04-25T00:20:34;2.83;;;2.00;;
15266;SDS011;7735;49.144;8.668;2023-04-25T00:23:01;3.63;;;2.57;;
15266;SDS011;7735;49.144;8.668;2023-04-25T00:25:28;3.67;;;2.30;;
15266;SDS011;7735;49.144;8.668;2023-04-25T00:27:55;3.10;;;2.47;;
15266;SDS011;7735;49.144;8.668;2023-04-25T00:30:30;3.67;;;2.50;;
15266;SDS011;7735;49.144;8.668;2023-04-25T00:33:17;3.73;;;2.50;;
15266;SDS011;7735;49.144;8.668;2023-04-25T00:35:43;3.83;;;2.50;;
15266;SDS011;7735;49.144;8.668;2023-04-25T00:38:10;3.13;;;2.40;;
15266;SDS011;7735;49.144;8.668;2023-04-25T00:40:38;2.27;;;2.00;;
15266;SDS011;7735;49.144;8.668;2023-04-25T00:43:22;2.80;;;2.30;;
15266;SDS011;7735;49.144;8.668;2023-04-25T00:45:50;5.63;;;2.30;;
15266;SDS011;7735;49.144;8.668;2023-04-25T00:48:19;2.33;;;2.00;;
15266;SDS011;7735;49.144;8.668;2023-04-25T00:50:48;3.40;;;2.30;;
15266;SDS011;7735;49.144;8.668;2023-04-25T00:53:26;2.67;;;2.30;;
15266;SDS011;7735;49.144;8.668;2023-04-25T00:55:53;2.43;;;2.17;;
15266;SDS011;7735;49.144;8.668;2023-04-25T00:58:20;3.40;;;2.43;;
15266;SDS011;7735;49.144;8.668;2023-04-25T01:00:48;3.07;;;2.30;;
15266;SDS011;7735;49.144;8.668;2023-04-25T01:03:17;3.97;;;2.30;;
15266;SDS011;7735;49.144;8.668;2023-04-25T01:05:47;3.20;;;2.47;;
15266;SDS011;7735;49.144;8.668;2023-04-25T01:08:14;2.90;;;2.30;;
15266;SDS011;7735;49.144;8.668;2023-04-25T01:10:41;3.80;;;2.40;;
15266;SDS011;7735;49.144;8.668;2023-04-25T01:13:07;3.73;;;2.30;;
15266;SDS011;7735;49.144;8.668;2023-04-25T01:15:34;2.97;;;2.47;;
15266;SDS011;7735;49.144;8.668;2023-04-25T01:18:02;4.30;;;2.37;;
15266;SDS011;7735;49.144;8.668;2023-04-25T01:20:29;3.23;;;2.60;;
15266;SDS011;7735;49.144;8.668;2023-04-25T01:22:59;3.83;;;2.70;;
15266;SDS011;7735;49.144;8.668;2023-04-25T01:25:27;3.27;;;2.63;;
15266;SDS011;7735;49.144;8.668;2023-04-25T01:27:54;3.70;;;2.70;;
15266;SDS011;7735;49.144;8.668;2023-04-25T01:30:22;5.70;;;2.73;;
15266;SDS011;7735;49.144;8.668;2023-04-25T01:32:48;4.97;;;3.10;;
15266;SDS011;7735;49.144;8.668;2023-04-25T01:35:15;5.40;;;2.93;;
15266;SDS011;7735;49.144;8.668;2023-04-25T01:37:42;3.40;;;2.37;;
15266;SDS011;7735;49.144;8.668;2023-04-25T01:40:11;4.27;;;2.90;;
15266;SDS011;7735;49.144;8.668;2023-04-25T01:42:39;7.50;;;2.77;;
15266;SDS011;7735;49.144;8.668;2023-04-25T01:45:08;3.37;;;2.53;;
15266;SDS011;7735;49.144;8.668;2023-04-25T01:47:36;3.43;;;2.53;;
15266;SDS011;7735;49.144;8.668;2023-04-25T01:50:05;5.97;;;2.70;;
15266;SDS011;7735;49.144;8.668;2023-04-25T01:52:32;3.67;;;2.77;;
15266;SDS011;7735;49.144;8.668;2023-04-25T01:54:59;3.80;;;2.57;;
15266;SDS011;7735;49.144;8.668;2023-04-25T01:57:29;3.20;;;2.80;;
15266;SDS011;7735;49.144;8.668;2023-04-25T01:59:57;3.83;;;2.70;;
15266;SDS011;7735;49.144;8.668;2023-04-25T02:02:25;4.47;;;2.80;;
15266;SDS011;7735;49.144;8.668;2023-04-25T02:04:52;4.70;;;2.90;;
15266;SDS011;7735;49.144;8.668;2023-04-25T02:07:19;4.40;;;3.10;;
15266;SDS011;7735;49.144;8.668;2023-04-25T02:09:46;4.47;;;3.40;;
15266;SDS011;7735;49.144;8.668;2023-04-25T02:12:12;3.83;;;3.00;;
15266;SDS011;7735;49.144;8.668;2023-04-25T02:14:40;4.20;;;3.17;;
15266;SDS011;7735;49.144;8.668;2023-04-25T02:17:07;4.53;;;3.00;;
15266;SDS011;7735;49.144;8.668;2023-04-25T02:19:34;4.77;;;3.43;;
15266;SDS011;7735;49.144;8.668;2023-04-25T02:22:00;4.33;;;3.53;;
15266;SDS011;7735;49.144;8.668;2023-04-25T02:24:27;4.37;;;3.23;;
15266;SDS011;7735;49.144;8.668;2023-04-25T02:26:54;4.30;;;2.87;;
15266;SDS011;7735;49.144;8.668;2023-04-25T02:29:21;6.33;;;3.07;;
15266;SDS011;7735;49.144;8.668;2023-04-25T02:31:49;4.33;;;3.93;;
15266;SDS011;7735;49.144;8.668;2023-04-25T02:34:16;4.13;;;3.03;;
15266;SDS011;7735;49.144;8.668;2023-04-25T02:36:42;5.37;;;3.37;;
15266;SDS011;7735;49.144;8.668;2023-04-25T02:39:09;5.23;;;2.87;;
15266;SDS011;7735;49.144;8.668;2023-04-25T02:41:36;3.87;;;3.20;;
15266;SDS011;7735;49.144;8.668;2023-04-25T02:44:03;4.23;;;3.27;;
15266;SDS011;7735;49.144;8.668;2023-04-25T02:46:29;4.53;;;3.00;;
15266;SDS011;7735;49.144;8.668;2023-04-25T02:48:57;5.10;;;3.10;;
15266;SDS011;7735;49.144;8.668;2023-04-25T02:51:24;4.83;;;3.67;;
15266;SDS011;7735;49.144;8.668;2023-04-25T02:53:51;5.30;;;3.20;;
15266;SDS011;7735;49.144;8.668;2023-04-25T02:56:17;4.43;;;3.23;;
15266;SDS011;7735;49.144;8.668;2023-04-25T02:58:44;5.57;;;3.67;;
15266;SDS011;7735;49.144;8.668;2023-04-25T03:01:11;5.13;;;3.43;;
15266;SDS011;7735;49.144;8.668;2023-04-25T03:03:38;5.43;;;3.30;;
15266;SDS011;7735;49.144;8.668;2023-04-25T03:08:47;7.03;;;4.23;;
15266;SDS011;7735;49.144;8.668;2023-04-25T03:11:14;5.33;;;3.70;;
15266;SDS011;7735;49.144;8.668;2023-04-25T03:13:40;3.93;;;3.20;;
15266;SDS011;7735;49.144;8.668;2023-04-25T03:16:07;4.70;;;2.73;;
15266;SDS011;7735;49.144;8.668;2023-04-25T03:18:35;4.37;;;3.23;;
15266;SDS011;7735;49.144;8.668;2023-04-25T03:21:17;5.87;;;3.70;;
15266;SDS011;7735;49.144;8.668;2023-04-25T03:23:46;4.20;;;3.13;;
15266;SDS011;7735;49.144;8.668;2023-04-25T03:26:12;5.17;;;3.00;;
15266;SDS011;7735;49.144;8.668;2023-04-25T03:28:39;4.83;;;3.00;;
15266;SDS011;7735;49.144;8.668;2023-04-25T03:31:06;4.77;;;3.53;;
15266;SDS011;7735;49.144;8.668;2023-04-25T03:33:32;8.10;;;4.23;;
15266;SDS011;7735;49.144;8.668;2023-04-25T03:35:59;6.33;;;3.33;;
15266;SDS011;7735;49.144;8.668;2023-04-25T03:38:26;8.70;;;4.67;;
15266;SDS011;7735;49.144;8.668;2023-04-25T03:40:54;5.20;;;3.47;;
15266;SDS011;7735;49.144;8.668;2023-04-25T03:43:21;7.13;;;4.03;;
15266;SDS011;7735;49.144;8.668;2023-04-25T03:45:54;6.77;;;3.93;;
15266;SDS011;7735;49.144;8.668;2023-04-25T03:48:20;6.43;;;4.03;;
15266;SDS011;7735;49.144;8.668;2023-04-25T03:50:49;4.63;;;3.90;;
15266;SDS011;7735;49.144;8.668;2023-04-25T03:53:16;5.30;;;3.43;;
15266;SDS011;7735;49.144;8.668;2023-04-25T03:55:42;5.23;;;3.07;;
15266;SDS011;7735;49.144;8.668;2023-04-25T03:58:11;4.27;;;3.57;;
15266;SDS011;7735;49.144;8.668;2023-04-25T04:00:37;5.57;;;3.90;;
15266;SDS011;7735;49.144;8.668;2023-04-25T04:03:04;7.80;;;4.40;;
15266;SDS011;7735;49.144;8.668;2023-04-25T04:05:30;5.33;;;3.63;;
15266;SDS011;7735;49.144;8.668;2023-04-25T04:07:57;4.80;;;3.57;;
15266;SDS011;7735;49.144;8.668;2023-04-25T04:10:24;4.67;;;3.23;;
15266;SDS011;7735;49.144;8.668;2023-04-25T04:12:51;4.87;;;3.33;;
15266;SDS011;7735;49.144;8.668;2023-04-25T04:15:19;5.17;;;3.43;;
15266;SDS011;7735;49.144;8.668;2023-04-25T04:17:45;5.23;;;3.83;;
15266;SDS011;7735;49.144;8.668;2023-04-25T04:20:12;5.43;;;3.90;;
15266;SDS011;7735;49.144;8.668;2023-04-25T04:22:39;5.07;;;3.80;;
15266;SDS011;7735;49.144;8.668;2023-04-25T04:25:06;5.23;;;3.47;;
15266;SDS011;7735;49.144;8.668;2023-04-25T04:27:33;4.80;;;3.40;;
15266;SDS011;7735;49.144;8.668;2023-04-25T04:30:00;6.60;;;3.77;;
15266;SDS011;7735;49.144;8.668;2023-04-25T04:32:29;5.27;;;3.60;;
15266;SDS011;7735;49.144;8.668;2023-04-25T04:34:57;5.13;;;3.60;;
15266;SDS011;7735;49.144;8.668;2023-04-25T04:37:24;5.17;;;3.50;;
15266;SDS011;7735;49.144;8.668;2023-04-25T04:39:51;8.43;;;3.97;;
15266;SDS011;7735;49.144;8.668;2023-04-25T04:42:18;6.93;;;5.20;;
15266;SDS011;7735;49.144;8.668;2023-04-25T04:44:44;6.32;;;5.00;;
15266;SDS011;7735;49.144;8.668;2023-04-25T04:47:11;6.50;;;4.77;;
15266;SDS011;7735;49.144;8.668;2023-04-25T04:49:40;6.23;;;4.90;;
15266;SDS011;7735;49.144;8.668;2023-04-25T04:52:07;7.03;;;4.10;;
15266;SDS011;7735;49.144;8.668;2023-04-25T04:54:34;5.47;;;3.30;;
15266;SDS011;7735;49.144;8.668;2023-04-25T04:57:01;6.93;;;4.50;;
15266;SDS011;7735;49.144;8.668;2023-04-25T04:59:27;7.00;;;4.40;;
15266;SDS011;7735;49.144;8.668;2023-04-25T05:01:55;6.70;;;4.00;;
15266;SDS011;7735;49.144;8.668;2023-04-25T05:04:22;5.50;;;4.10;;
15266;SDS011;7735;49.144;8.668;2023-04-25T05:06:50;6.67;;;3.57;;
15266;SDS011;7735;49.144;8.668;2023-04-25T05:09:17;5.90;;;3.40;;
15266;SDS011;7735;49.144;8.668;2023-04-25T05:11:44;5.93;;;3.90;;
15266;SDS011;7735;49.144;8.668;2023-04-25T05:14:13;7.40;;;4.33;;
15266;SDS011;7735;49.144;8.668;2023-04-25T05:16:42;6.30;;;4.87;;
15266;SDS011;7735;49.144;8.668;2023-04-25T05:19:08;6.63;;;3.33;;
15266;SDS011;7735;49.144;8.668;2023-04-25T05:21:35;5.80;;;4.20;;
15266;SDS011;7735;49.144;8.668;2023-04-25T05:24:04;6.10;;;3.83;;
15266;SDS011;7735;49.144;8.668;2023-04-25T05:26:30;6.73;;;4.33;;
15266;SDS011;7735;49.144;8.668;2023-04-25T05:28:57;5.60;;;3.83;;
15266;SDS011;7735;49.144;8.668;2023-04-25T05:31:24;6.07;;;4.40;;
15266;SDS011;7735;49.144;8.668;2023-04-25T05:33:51;4.47;;;3.10;;
15266;SDS011;7735;49.144;8.668;2023-04-25T05:36:18;10.13;;;6.13;;
15266;SDS011;7735;49.144;8.668;2023-04-25T05:38:46;6.23;;;3.93;;
15266;SDS011;7735;49.144;8.668;2023-04-25T05:41:14;7.70;;;3.83;;
15266;SDS011;7735;49.144;8.668;2023-04-25T05:43:41;6.10;;;3.90;;
15266;SDS011;7735;49.144;8.668;2023-04-25T05:46:10;5.87;;;3.87;;
15266;SDS011;7735;49.144;8.668;2023-04-25T05:48:37;6.27;;;3.97;;
15266;SDS011;7735;49.144;8.668;2023-04-25T05:51:04;5.27;;;3.70;;
15266;SDS011;7735;49.144;8.668;2023-04-25T05:53:30;7.30;;;3.97;;
15266;SDS011;7735;49.144;8.668;2023-04-25T05:55:57;9.37;;;4.77;;
15266;SDS011;7735;49.144;8.668;2023-04-25T05:58:25;5.63;;;4.17;;
15266;SDS011;7735;49.144;8.668;2023-04-25T06:00:52;8.47;;;3.97;;
15266;SDS011;7735;49.144;8.668;2023-04-25T06:03:19;6.97;;;3.77;;
15266;SDS011;7735;49.144;8.668;2023-04-25T06:05:46;5.93;;;4.03;;
15266;SDS011;7735;49.144;8.668;2023-04-25T06:08:12;6.57;;;4.60;;
15266;SDS011;7735;49.144;8.668;2023-04-25T06:10:39;6.50;;;3.57;;
15266;SDS011;7735;49.144;8.668;2023-04-25T06:13:06;6.87;;;4.43;;
15266;SDS011;7735;49.144;8.668;2023-04-25T06:15:34;5.83;;;4.13;;
15266;SDS011;7735;49.144;8.668;2023-04-25T06:18:00;5.57;;;4.17;;
15266;SDS011;7735;49.144;8.668;2023-04-25T06:20:27;6.60;;;4.13;;
15266;SDS011;7735;49.144;8.668;2023-04-25T06:22:54;7.17;;;4.37;;
15266;SDS011;7735;49.144;8.668;2023-04-25T06:25:20;5.23;;;3.80;;
15266;SDS011;7735;49.144;8.668;2023-04-25T06:27:47;6.30;;;4.23;;
15266;SDS011;7735;49.144;8.668;2023-04-25T06:30:14;6.93;;;4.80;;
15266;SDS011;7735;49.144;8.668;2023-04-25T06:32:44;6.03;;;4.40;;
15266;SDS011;7735;49.144;8.668;2023-04-25T06:35:11;6.60;;;4.57;;
15266;SDS011;7735;49.144;8.668;2023-04-25T06:37:38;5.70;;;4.13;;
15266;SDS011;7735;49.144;8.668;2023-04-25T06:40:05;7.17;;;3.90;;
15266;SDS011;7735;49.144;8.668;2023-04-25T06:42:32;10.57;;;4.53;;
15266;SDS011;7735;49.144;8.668;2023-04-25T06:44:59;7.37;;;4.23;;
15266;SDS011;7735;49.144;8.668;2023-04-25T06:47:26;8.73;;;3.80;;
15266;SDS011;7735;49.144;8.668;2023-04-25T06:49:54;7.60;;;4.10;;
15266;SDS011;7735;49.144;8.668;2023-04-25T06:52:20;22.27;;;9.43;;
15266;SDS011;7735;49.144;8.668;2023-04-25T06:54:47;8.33;;;5.17;;
15266;SDS011;7735;49.144;8.668;2023-04-25T06:57:13;7.03;;;4.70;;
15266;SDS011;7735;49.144;8.668;2023-04-25T06:59:40;5.27;;;3.53;;
15266;SDS011;7735;49.144;8.668;2023-04-25T07:02:07;7.70;;;4.03;;
15266;SDS011;7735;49.144;8.668;2023-04-25T07:04:33;6.00;;;4.13;;
15266;SDS011;7735;49.144;8.668;2023-04-25T07:07:01;6.80;;;4.30;;
15266;SDS011;7735;49.144;8.668;2023-04-25T07:09:28;7.13;;;4.50;;
15266;SDS011;7735;49.144;8.668;2023-04-25T07:11:58;8.33;;;4.27;;
15266;SDS011;7735;49.144;8.668;2023-04-25T07:14:26;6.50;;;4.17;;
15266;SDS011;7735;49.144;8.668;2023-04-25T07:16:52;6.60;;;4.00;;
15266;SDS011;7735;49.144;8.668;2023-04-25T07:19:20;6.07;;;3.77;;
15266;SDS011;7735;49.144;8.668;2023-04-25T07:21:48;5.60;;;4.13;;
15266;SDS011;7735;49.144;8.668;2023-04-25T07:24:16;6.53;;;4.53;;
15266;SDS011;7735;49.144;8.668;2023-04-25T07:26:43;6.13;;;4.47;;
15266;SDS011;7735;49.144;8.668;2023-04-25T07:29:10;5.97;;;3.87;;
15266;SDS011;7735;49.144;8.668;2023-04-25T07:31:37;5.93;;;3.90;;
15266;SDS011;7735;49.144;8.668;2023-04-25T07:34:04;6.10;;;3.77;;
15266;SDS011;7735;49.144;8.668;2023-04-25T07:36:31;5.63;;;4.40;;
15266;SDS011;7735;49.144;8.668;2023-04-25T07:39:00;6.57;;;4.27;;
15266;SDS011;7735;49.144;8.668;2023-04-25T07:41:28;8.40;;;4.33;;
15266;SDS011;7735;49.144;8.668;2023-04-25T07:43:55;7.33;;;4.83;;
15266;SDS011;7735;49.144;8.668;2023-04-25T07:46:22;8.43;;;4.03;;
15266;SDS011;7735;49.144;8.668;2023-04-25T07:48:48;5.57;;;4.10;;
15266;SDS011;7735;49.144;8.668;2023-04-25T07:51:15;7.23;;;4.03;;
15266;SDS011;7735;49.144;8.668;2023-04-25T07:53:42;5.60;;;4.10;;
15266;SDS011;7735;49.144;8.668;2023-04-25T07:56:08;6.83;;;4.53;;
15266;SDS011;7735;49.144;8.668;2023-04-25T07:58:37;6.30;;;4.63;;
15266;SDS011;7735;49.144;8.668;2023-04-25T08:01:03;11.10;;;5.90;;
15266;SDS011;7735;49.144;8.668;2023-04-25T08:03:30;9.10;;;4.93;;
15266;SDS011;7735;49.144;8.668;2023-04-25T08:05:57;6.37;;;4.63;;
15266;SDS011;7735;49.144;8.668;2023-04-25T08:08:23;7.07;;;4.37;;
15266;SDS011;7735;49.144;8.668;2023-04-25T08:10:50;7.80;;;5.17;;
15266;SDS011;7735;49.144;8.668;2023-04-25T08:13:17;9.10;;;5.10;;
15266;SDS011;7735;49.144;8.668;2023-04-25T08:15:45;6.60;;;4.47;;
15266;SDS011;7735;49.144;8.668;2023-04-25T08:18:12;8.30;;;4.37;;
15266;SDS011;7735;49.144;8.668;2023-04-25T08:20:38;7.60;;;4.77;;
15266;SDS011;7735;49.144;8.668;2023-04-25T08:23:05;8.83;;;5.90;;
15266;SDS011;7735;49.144;8.668;2023-04-25T08:25:34;6.20;;;3.80;;
15266;SDS011;7735;49.144;8.668;2023-04-25T08:28:16;8.80;;;5.40;;
15266;SDS011;7735;49.144;8.668;2023-04-25T08:30:43;9.87;;;3.90;;
15266;SDS011;7735;49.144;8.668;2023-04-25T08:33:11;7.30;;;3.70;;
15266;SDS011;7735;49.144;8.668;2023-04-25T08:35:37;13.13;;;5.57;;
15266;SDS011;7735;49.144;8.668;2023-04-25T08:38:04;5.97;;;4.23;;
15266;SDS011;7735;49.144;8.668;2023-04-25T08:40:31;10.73;;;5.67;;
15266;SDS011;7735;49.144;8.668;2023-04-25T08:43:03;16.80;;;6.03;;
15266;SDS011;7735;49.144;8.668;2023-04-25T08:45:36;9.37;;;6.03;;
15266;SDS011;7735;49.144;8.668;2023-04-25T08:48:07;10.00;;;6.03;;
15266;SDS011;7735;49.144;8.668;2023-04-25T08:50:38;4.90;;;3.00;;
15266;SDS011;7735;49.144;8.668;2023-04-25T08:53:07;11.40;;;6.23;;
15266;SDS011;7735;49.144;8.668;2023-04-25T08:55:38;12.43;;;5.73;;
15266;SDS011;7735;49.144;8.668;2023-04-25T08:58:07;9.20;;;5.17;;
15266;SDS011;7735;49.144;8.668;2023-04-25T09:00:36;7.60;;;4.67;;
15266;SDS011;7735;49.144;8.668;2023-04-25T09:03:03;7.83;;;5.33;;
15266;SDS011;7735;49.144;8.668;2023-04-25T09:05:31;8.23;;;4.73;;
15266;SDS011;7735;49.144;8.668;2023-04-25T09:07:59;11.97;;;4.37;;
15266;SDS011;7735;49.144;8.668;2023-04-25T09:10:26;11.10;;;5.27;;
15266;SDS011;7735;49.144;8.668;2023-04-25T09:13:01;9.70;;;4.27;;
15266;SDS011;7735;49.144;8.668;2023-04-25T09:15:30;13.73;;;6.00;;
15266;SDS011;7735;49.144;8.668;2023-04-25T09:17:56;11.57;;;3.73;;
15266;SDS011;7735;49.144;8.668;2023-04-25T09:20:23;6.13;;;3.13;;
15266;SDS011;7735;49.144;8.668;2023-04-25T09:23:02;5.50;;;2.30;;
15266;SDS011;7735;49.144;8.668;2023-04-25T09:25:33;10.17;;;3.40;;
15266;SDS011;7735;49.144;8.668;2023-04-25T09:28:03;9.37;;;3.90;;
15266;SDS011;7735;49.144;8.668;2023-04-25T09:30:31;5.80;;;2.73;;
15266;SDS011;7735;49.144;8.668;2023-04-25T09:33:03;7.67;;;3.43;;
15266;SDS011;7735;49.144;8.668;2023-04-25T09:35:34;5.70;;;3.60;;
15266;SDS011;7735;49.144;8.668;2023-04-25T09:38:07;13.33;;;4.00;;
15266;SDS011;7735;49.144;8.668;2023-04-25T09:40:38;11.40;;;4.37;;
15266;SDS011;7735;49.144;8.668;2023-04-25T09:43:08;7.40;;;3.23;;
15266;SDS011;7735;49.144;8.668;2023-04-25T09:45:46;8.53;;;3.63;;
15266;SDS011;7735;49.144;8.668;2023-04-25T09:48:16;7.33;;;3.20;;
15266;SDS011;7735;49.144;8.668;2023-04-25T09:50:45;3.93;;;1.83;;
15266;SDS011;7735;49.144;8.668;2023-04-25T09:53:13;7.13;;;3.23;;
15266;SDS011;7735;49.144;8.668;2023-04-25T09:55:40;6.23;;;3.23;;
15266;SDS011;7735;49.144;8.668;2023-04-25T09:58:09;5.33;;;3.63;;
15266;SDS011;7735;49.144;8.668;2023-04-25T10:00:37;5.63;;;3.37;;
15266;SDS011;7735;49.144;8.668;2023-04-25T10:03:05;6.33;;;3.10;;
15266;SDS011;7735;49.144;8.668;2023-04-25T10:05:32;10.57;;;3.97;;
15266;SDS011;7735;49.144;8.668;2023-04-25T10:08:02;6.50;;;3.90;;
15266;SDS011;7735;49.144;8.668;2023-04-25T10:10:31;8.90;;;5.00;;
15266;SDS011;7735;49.144;8.668;2023-04-25T10:13:02;7.50;;;3.67;;
15266;SDS011;7735;49.144;8.668;2023-04-25T10:15:30;8.70;;;4.03;;
15266;SDS011;7735;49.144;8.668;2023-04-25T10:18:00;8.83;;;3.80;;
15266;SDS011;7735;49.144;8.668;2023-04-25T10:20:27;6.67;;;4.23;;
15266;SDS011;7735;49.144;8.668;2023-04-25T10:22:54;9.70;;;4.90;;
15266;SDS011;7735;49.144;8.668;2023-04-25T10:25:24;6.50;;;3.57;;
15266;SDS011;7735;49.144;8.668;2023-04-25T10:27:52;7.90;;;4.70;;
15266;SDS011;7735;49.144;8.668;2023-04-25T10:30:19;6.87;;;3.60;;
15266;SDS011;7735;49.144;8.668;2023-04-25T10:32:46;8.93;;;4.70;;
15266;SDS011;7735;49.144;8.668;2023-04-25T10:35:15;9.63;;;4.50;;
15266;SDS011;7735;49.144;8.668;2023-04-25T10:37:59;7.67;;;4.33;;
15266;SDS011;7735;49.144;8.668;2023-04-25T10:40:28;9.30;;;4.67;;
15266;SDS011;7735;49.144;8.668;2023-04-25T10:42:56;8.20;;;4.40;;
15266;SDS011;7735;49.144;8.668;2023-04-25T10:46:03;7.07;;;4.43;;
15266;SDS011;7735;49.144;8.668;2023-04-25T10:48:43;12.70;;;5.27;;
15266;SDS011;7735;49.144;8.668;2023-04-25T10:51:15;11.37;;;5.67;;
15266;SDS011;7735;49.144;8.668;2023-04-25T10:53:43;8.57;;;4.83;;
15266;SDS011;7735;49.144;8.668;2023-04-25T10:56:10;11.43;;;5.47;;
15266;SDS011;7735;49.144;8.668;2023-04-25T10:58:43;11.20;;;5.73;;
15266;SDS011;7735;49.144;8.668;2023-04-25T11:01:09;12.60;;;5.33;;
15266;SDS011;7735;49.144;8.668;2023-04-25T11:03:42;10.30;;;5.90;;
15266;SDS011;7735;49.144;8.668;2023-04-25T11:06:12;15.30;;;7.13;;
15266;SDS011;7735;49.144;8.668;2023-04-25T11:08:47;15.07;;;7.33;;
15266;SDS011;7735;49.144;8.668;2023-04-25T11:11:15;8.20;;;5.23;;
15266;SDS011;7735;49.144;8.668;2023-04-25T11:13:44;12.93;;;6.27;;
15266;SDS011;7735;49.144;8.668;2023-04-25T11:16:14;10.20;;;5.73;;
15266;SDS011;7735;49.144;8.668;2023-04-25T11:18:41;9.03;;;4.93;;
15266;SDS011;7735;49.144;8.668;2023-04-25T11:21:10;8.73;;;4.03;;
15266;SDS011;7735;49.144;8.668;2023-04-25T11:23:37;7.63;;;4.37;;
15266;SDS011;7735;49.144;8.668;2023-04-25T11:26:04;11.77;;;4.07;;
15266;SDS011;7735;49.144;8.668;2023-04-25T11:28:31;10.10;;;5.47;;
15266;SDS011;7735;49.144;8.668;2023-04-25T11:30:58;9.53;;;5.43;;
15266;SDS011;7735;49.144;8.668;2023-04-25T11:33:25;5.00;;;2.50;;
15266;SDS011;7735;49.144;8.668;2023-04-25T11:35:53;13.73;;;5.70;;
15266;SDS011;7735;49.144;8.668;2023-04-25T11:38:21;12.37;;;5.50;;
15266;SDS011;7735;49.144;8.668;2023-04-25T11:40:49;6.03;;;4.47;;
15266;SDS011;7735;49.144;8.668;2023-04-25T11:43:17;7.67;;;4.57;;
15266;SDS011;7735;49.144;8.668;2023-04-25T11:45:46;12.37;;;5.60;;
15266;SDS011;7735;49.144;8.668;2023-04-25T11:48:15;12.97;;;5.00;;
15266;SDS011;7735;49.144;8.668;2023-04-25T11:50:42;6.50;;;3.47;;
15266;SDS011;7735;49.144;8.668;2023-04-25T11:53:08;11.20;;;4.87;;
15266;SDS011;7735;49.144;8.668;2023-04-25T11:55:47;11.67;;;5.13;;
15266;SDS011;7735;49.144;8.668;2023-04-25T11:58:23;8.77;;;4.53;;
15266;SDS011;7735;49.144;8.668;2023-04-25T12:00:55;10.70;;;4.93;;
15266;SDS011;7735;49.144;8.668;2023-04-25T12:03:25;10.13;;;6.00;;
15266;SDS011;7735;49.144;8.668;2023-04-25T12:06:01;9.87;;;5.47;;
15266;SDS011;7735;49.144;8.668;2023-04-25T12:08:29;10.30;;;5.57;;
15266;SDS011;7735;49.144;8.668;2023-04-25T12:10:56;10.60;;;5.23;;
15266;SDS011;7735;49.144;8.668;2023-04-25T12:13:23;9.93;;;5.27;;
15266;SDS011;7735;49.144;8.668;2023-04-25T12:15:51;8.33;;;4.83;;
15266;SDS011;7735;49.144;8.668;2023-04-25T12:18:20;11.80;;;6.23;;
15266;SDS011;7735;49.144;8.668;2023-04-25T12:20:51;7.63;;;4.60;;
15266;SDS011;7735;49.144;8.668;2023-04-25T12:23:24;9.77;;;5.43;;
15266;SDS011;7735;49.144;8.668;2023-04-25T12:26:05;8.43;;;5.23;;
15266;SDS011;7735;49.144;8.668;2023-04-25T12:28:32;9.53;;;5.23;;
15266;SDS011;7735;49.144;8.668;2023-04-25T12:30:59;16.63;;;6.33;;
15266;SDS011;7735;49.144;8.668;2023-04-25T12:33:27;9.47;;;4.30;;
15266;SDS011;7735;49.144;8.668;2023-04-25T12:35:56;8.13;;;6.03;;
15266;SDS011;7735;49.144;8.668;2023-04-25T12:38:24;12.37;;;5.73;;
15266;SDS011;7735;49.144;8.668;2023-04-25T12:40:52;14.17;;;5.50;;
15266;SDS011;7735;49.144;8.668;2023-04-25T12:43:19;10.97;;;4.67;;
15266;SDS011;7735;49.144;8.668;2023-04-25T12:45:47;10.23;;;5.93;;
15266;SDS011;7735;49.144;8.668;2023-04-25T12:48:14;10.50;;;5.20;;
15266;SDS011;7735;49.144;8.668;2023-04-25T12:50:41;10.30;;;5.07;;
15266;SDS011;7735;49.144;8.668;2023-04-25T12:53:09;9.67;;;5.40;;
15266;SDS011;7735;49.144;8.668;2023-04-25T12:55:36;9.17;;;4.90;;
15266;SDS011;7735;49.144;8.668;2023-04-25T12:58:03;7.23;;;4.07;;
15266;SDS011;7735;49.144;8.668;2023-04-25T13:00:30;13.30;;;5.43;;
15266;SDS011;7735;49.144;8.668;2023-04-25T13:02:56;13.87;;;5.97;;
15266;SDS011;7735;49.144;8.668;2023-04-25T13:05:23;8.37;;;4.20;;
15266;SDS011;7735;49.144;8.668;2023-04-25T13:07:50;12.53;;;5.80;;
15266;SDS011;7735;49.144;8.668;2023-04-25T13:10:18;10.57;;;4.93;;
15266;SDS011;7735;49.144;8.668;2023-04-25T13:12:45;15.57;;;6.03;;
15266;SDS011;7735;49.144;8.668;2023-04-25T13:15:12;10.83;;;5.27;;
15266;SDS011;7735;49.144;8.668;2023-04-25T13:17:40;13.17;;;6.07;;
15266;SDS011;7735;49.144;8.668;2023-04-25T13:20:08;11.10;;;5.27;;
15266;SDS011;7735;49.144;8.668;2023-04-25T13:22:35;13.60;;;6.40;;
15266;SDS011;7735;49.144;8.668;2023-04-25T13:25:02;12.43;;;5.20;;
15266;SDS011;7735;49.144;8.668;2023-04-25T13:27:31;10.93;;;5.93;;
15266;SDS011;7735;49.144;8.668;2023-04-25T13:29:59;15.43;;;5.43;;
15266;SDS011;7735;49.144;8.668;2023-04-25T13:32:26;13.30;;;6.37;;
15266;SDS011;7735;49.144;8.668;2023-04-25T13:34:52;9.13;;;4.90;;
15266;SDS011;7735;49.144;8.668;2023-04-25T13:37:19;9.97;;;4.30;;
15266;SDS011;7735;49.144;8.668;2023-04-25T13:39:49;10.53;;;4.93;;
15266;SDS011;7735;49.144;8.668;2023-04-25T13:42:16;7.97;;;4.73;;
15266;SDS011;7735;49.144;8.668;2023-04-25T13:44:44;10.93;;;5.80;;
15266;SDS011;7735;49.144;8.668;2023-04-25T13:47:10;9.87;;;4.97;;
15266;SDS011;7735;49.144;8.668;2023-04-25T13:49:37;8.57;;;5.03;;
15266;SDS011;7735;49.144;8.668;2023-04-25T13:52:04;8.97;;;5.27;;
15266;SDS011;7735;49.144;8.668;2023-04-25T13:54:32;8.97;;;4.70;;
15266;SDS011;7735;49.144;8.668;2023-04-25T13:57:00;10.37;;;5.07;;
15266;SDS011;7735;49.144;8.668;2023-04-25T13:59:27;10.20;;;4.90;;
15266;SDS011;7735;49.144;8.668;2023-04-25T14:01:55;7.53;;;4.87;;
15266;SDS011;7735;49.144;8.668;2023-04-25T14:04:21;6.37;;;4.47;;
15266;SDS011;7735;49.144;8.668;2023-04-25T14:06:48;10.37;;;4.20;;
15266;SDS011;7735;49.144;8.668;2023-04-25T14:09:15;10.10;;;3.90;;
15266;SDS011;7735;49.144;8.668;2023-04-25T14:11:47;9.83;;;4.13;;
15266;SDS011;7735;49.144;8.668;2023-04-25T14:14:24;8.73;;;5.10;;
15266;SDS011;7735;49.144;8.668;2023-04-25T14:16:51;6.23;;;3.60;;
15266;SDS011;7735;49.144;8.668;2023-04-25T14:19:20;6.20;;;3.67;;
15266;SDS011;7735;49.144;8.668;2023-04-25T14:21:59;5.13;;;3.10;;
15266;SDS011;7735;49.144;8.668;2023-04-25T14:24:26;7.17;;;4.00;;
15266;SDS011;7735;49.144;8.668;2023-04-25T14:27:02;6.03;;;3.10;;
15266;SDS011;7735;49.144;8.668;2023-04-25T14:29:29;3.93;;;2.80;;
15266;SDS011;7735;49.144;8.668;2023-04-25T14:31:56;3.33;;;2.97;;
15266;SDS011;7735;49.144;8.668;2023-04-25T14:34:25;5.80;;;3.13;;
15266;SDS011;7735;49.144;8.668;2023-04-25T14:36:52;4.53;;;3.10;;
15266;SDS011;7735;49.144;8.668;2023-04-25T14:39:25;6.50;;;3.97;;
15266;SDS011;7735;49.144;8.668;2023-04-25T14:44:37;6.23;;;3.90;;
15266;SDS011;7735;49.144;8.668;2023-04-25T14:47:04;7.93;;;3.90;;
15266;SDS011;7735;49.144;8.668;2023-04-25T14:49:32;3.63;;;2.93;;
15266;SDS011;7735;49.144;8.668;2023-04-25T14:51:59;8.77;;;3.83;;
15266;SDS011;7735;49.144;8.668;2023-04-25T14:54:26;7.20;;;4.10;;
15266;SDS011;7735;49.144;8.668;2023-04-25T14:56:52;6.00;;;3.40;;
15266;SDS011;7735;49.144;8.668;2023-04-25T14:59:19;13.70;;;7.07;;
15266;SDS011;7735;49.144;8.668;2023-04-25T15:01:46;4.53;;;3.50;;
15266;SDS011;7735;49.144;8.668;2023-04-25T15:04:12;3.67;;;2.70;;
15266;SDS011;7735;49.144;8.668;2023-04-25T15:06:41;6.00;;;2.80;;
15266;SDS011;7735;49.144;8.668;2023-04-25T15:09:07;4.27;;;2.87;;